Archival Weather

Pemba

Pemba, Mozambique (FQPB)

Report from: Saturday, April 1, 2023 8:00 PM CAT
Current time: Monday, July 22, 2024 12:50 PM CAT

Current weather – Weather history – Daily summaries
Weather forecast

Temperature26.0°C (78.8°F)
Dew point23.0°C (73.4°F)
Winds 7 kts (3.6 m/s, 8.1 mph) Vrb
Winds variableWinds variable from Southeast (130°) to South-Southwest (200°)
Visibility6.2 mi. (10 km)
Clouds Ceiling: Broken clouds 0 ft. (0 m)
Few clouds 2,000 ft. (610 m)
Few clouds with cumulonimbus 2,500 ft. (762 m)
Altimeter29.91 in.Hg (1013 mB)
Relative humidity84 %
Density altitude1,656 ft. (505 m)
Remarks Cumulonimbus clouds observed
Flight conditions Low Instrument Meteorological Conditions
Raw dataFQPB 011800Z 16007KT 130V200 9999 FEW020 FEW025CB BKN/// 26/23 Q1013 RMK CB TO SW/W/NW
An error has occurred. This application may no longer respond until reloaded. Reload 🗙